Time;durP1;ratioP1;P1;durP2;ratioP2;P2;SDS_P1;SDS_P2;PMS_P1;PMS_P2;Temp;Humidity;BMP_temperature;BMP_pressure;BME280_temperature;BME280_humidity;BME280_pressure;Samples;Min_cycle;Max_cycle;Signal;HPM_P1;HPM_P2
2021/12/09 00:01:53;;;;;;;9.33;8.27;;;2.40;99.90;;;;;;5115303;28;20263;-82
2021/12/09 00:04:27;;;;;;;11.70;8.37;;;2.40;99.90;;;;;;5115288;28;20199;-82
2021/12/09 00:06:59;;;;;;;7.93;7.13;;;2.30;99.90;;;;;;5115296;28;20199;-82
2021/12/09 00:09:28;;;;;;;8.75;7.68;;;2.30;99.90;;;;;;5114748;28;20243;-82
2021/12/09 00:11:58;;;;;;;11.05;9.05;;;2.30;99.90;;;;;;5115523;28;20212;-82
2021/12/09 00:14:30;;;;;;;9.13;8.23;;;2.20;99.90;;;;;;5115259;28;20235;-82
2021/12/09 00:17:01;;;;;;;11.90;8.50;;;2.20;99.90;;;;;;5115003;28;20199;-82
2021/12/09 00:19:29;;;;;;;15.03;9.47;;;2.30;99.90;;;;;;5114912;28;20290;-82
2021/12/09 00:21:59;;;;;;;8.37;7.50;;;2.20;99.90;;;;;;5115108;28;20239;-82
2021/12/09 00:24:27;;;;;;;9.23;8.13;;;2.20;99.90;;;;;;5114907;28;20295;-82
2021/12/09 00:26:56;;;;;;;10.77;9.30;;;2.30;99.90;;;;;;5114901;28;20242;-82
2021/12/09 00:29:25;;;;;;;10.37;9.17;;;2.30;99.90;;;;;;5113917;28;20235;-82
2021/12/09 00:31:55;;;;;;;10.87;9.37;;;2.30;99.90;;;;;;5114508;28;20231;-82
2021/12/09 00:34:30;;;;;;;16.97;10.53;;;2.30;99.90;;;;;;5114966;28;20203;-82
2021/12/09 00:37:04;;;;;;;14.37;9.57;;;2.30;99.90;;;;;;5114622;28;20294;-82
2021/12/09 00:39:33;;;;;;;14.40;10.27;;;2.30;99.90;;;;;;5113681;28;20268;-82
2021/12/09 00:42:01;;;;;;;10.90;9.57;;;2.30;99.90;;;;;;5114971;28;20218;-82
2021/12/09 00:44:29;;;;;;;12.60;9.83;;;2.30;99.90;;;;;;5114392;28;20207;-82
2021/12/09 00:46:59;;;;;;;9.33;8.23;;;2.30;99.90;;;;;;5114316;28;20291;-82
2021/12/09 00:49:30;;;;;;;10.83;9.70;;;2.30;99.90;;;;;;5113842;28;20253;-82
2021/12/09 00:51:59;;;;;;;11.03;9.87;;;2.30;99.90;;;;;;5114181;28;20304;-82
2021/12/09 00:54:28;;;;;;;8.83;7.93;;;2.30;99.90;;;;;;5114127;28;20203;-82
2021/12/09 00:56:57;;;;;;;11.53;10.10;;;2.30;99.90;;;;;;5114460;28;20267;-82
2021/12/09 00:59:25;;;;;;;12.17;10.80;;;2.30;99.90;;;;;;5113826;28;20268;-82
2021/12/09 01:01:54;;;;;;;12.40;11.03;;;2.30;99.90;;;;;;5114362;28;20226;-82
2021/12/09 01:04:24;;;;;;;12.50;9.77;;;2.30;99.90;;;;;;5114151;28;20212;-82
2021/12/09 01:06:52;;;;;;;10.77;9.70;;;2.30;99.90;;;;;;5113947;28;20204;-82
2021/12/09 01:09:21;;;;;;;11.17;9.83;;;2.30;99.90;;;;;;5113450;28;20243;-82
2021/12/09 01:11:49;;;;;;;14.47;10.97;;;2.30;99.90;;;;;;5114077;28;20200;-82
2021/12/09 01:14:17;;;;;;;12.98;11.07;;;2.30;99.90;;;;;;5114033;28;20235;-82
2021/12/09 01:16:46;;;;;;;13.73;11.33;;;2.30;99.90;;;;;;5113906;28;20292;-82
2021/12/09 01:19:14;;;;;;;10.43;9.40;;;2.20;99.90;;;;;;5113232;28;20298;-82
2021/12/09 01:21:45;;;;;;;20.73;12.93;;;2.20;99.90;;;;;;5113933;28;20261;-82
2021/12/09 01:24:13;;;;;;;14.30;12.53;;;2.20;99.90;;;;;;5113433;28;20211;-82
2021/12/09 01:26:42;;;;;;;16.77;12.40;;;2.10;99.90;;;;;;5114037;28;20235;-82
2021/12/09 01:29:15;;;;;;;13.30;11.70;;;2.10;99.90;;;;;;5113359;28;20292;-82
2021/12/09 01:31:53;;;;;;;14.80;12.67;;;2.10;99.90;;;;;;5113670;28;20216;-82
2021/12/09 01:34:22;;;;;;;15.10;12.45;;;2.10;99.90;;;;;;5113338;28;20262;-82
2021/12/09 01:36:51;;;;;;;13.47;12.10;;;2.10;99.90;;;;;;5113528;28;20207;-82
2021/12/09 01:39:21;;;;;;;18.20;12.90;;;2.10;99.90;;;;;;5113004;28;20283;-82
2021/12/09 01:41:49;;;;;;;15.27;13.57;;;2.00;99.90;;;;;;5113529;28;20214;-82
2021/12/09 01:44:17;;;;;;;20.33;15.00;;;2.00;99.90;;;;;;5113372;28;20276;-82
2021/12/09 01:46:46;;;;;;;15.00;13.40;;;1.90;99.90;;;;;;5113462;28;20200;-82
2021/12/09 01:49:14;;;;;;;17.60;14.47;;;1.90;99.90;;;;;;5112525;28;20224;-82
2021/12/09 01:51:45;;;;;;;17.63;15.03;;;1.90;99.90;;;;;;5113057;28;20232;-82
2021/12/09 01:54:18;;;;;;;17.03;14.83;;;1.90;99.90;;;;;;5113323;28;20293;-82
2021/12/09 01:56:46;;;;;;;23.30;17.40;;;1.90;99.90;;;;;;5113215;28;20295;-82
2021/12/09 01:59:15;;;;;;;19.03;15.63;;;1.70;99.90;;;;;;5112920;28;20294;-82
2021/12/09 02:01:43;;;;;;;19.97;15.00;;;1.60;99.90;;;;;;5113153;28;20288;-82
2021/12/09 02:04:13;;;;;;;16.57;14.77;;;1.50;99.90;;;;;;5113451;28;20227;-83
2021/12/09 02:06:44;;;;;;;18.67;16.37;;;1.40;99.90;;;;;;5113060;28;20218;-84
2021/12/09 02:09:18;;;;;;;20.07;17.90;;;1.30;99.90;;;;;;5112793;28;20227;-84
2021/12/09 02:11:47;;;;;;;25.67;16.33;;;1.30;99.90;;;;;;5113046;28;20267;-84
2021/12/09 02:14:15;;;;;;;26.00;19.13;;;1.20;99.90;;;;;;5112887;28;20231;-84
2021/12/09 02:16:43;;;;;;;20.30;17.10;;;1.20;99.90;;;;;;5112886;28;20275;-84
2021/12/09 02:19:13;;;;;;;32.30;19.60;;;1.20;99.90;;;;;;5112453;28;20279;-84
2021/12/09 02:21:43;;;;;;;21.57;17.30;;;1.20;99.90;;;;;;5113012;28;20211;-82
2021/12/09 02:24:16;;;;;;;20.17;17.17;;;1.20;99.90;;;;;;5112802;28;20196;-82
2021/12/09 02:26:49;;;;;;;24.67;18.43;;;1.10;99.90;;;;;;5113031;28;20208;-82
2021/12/09 02:29:18;;;;;;;26.40;20.13;;;1.10;99.90;;;;;;5111804;28;20324;-82
2021/12/09 02:31:47;;;;;;;27.43;21.23;;;1.10;99.90;;;;;;5112915;28;20290;-82
2021/12/09 02:34:16;;;;;;;27.03;20.80;;;1.10;99.90;;;;;;5113417;28;20286;-82
2021/12/09 02:36:47;;;;;;;25.83;18.83;;;1.00;99.90;;;;;;5112677;28;20203;-83
2021/12/09 02:39:15;;;;;;;26.83;21.90;;;1.00;99.90;;;;;;5112155;28;20240;-82
2021/12/09 02:41:45;;;;;;;27.30;21.43;;;1.00;99.90;;;;;;5112794;28;20275;-83
2021/12/09 02:44:17;;;;;;;25.10;21.03;;;1.00;99.90;;;;;;5113085;28;20213;-82
2021/12/09 02:46:48;;;;;;;26.67;21.50;;;1.00;99.90;;;;;;5113341;28;20287;-83
2021/12/09 02:49:19;;;;;;;27.23;21.40;;;0.90;99.90;;;;;;5111846;28;20288;-82
2021/12/09 02:51:51;;;;;;;27.80;20.33;;;0.90;99.90;;;;;;5112837;28;20203;-82
2021/12/09 02:54:21;;;;;;;25.90;22.33;;;0.90;99.90;;;;;;5113042;28;20288;-82
2021/12/09 02:56:52;;;;;;;31.67;22.50;;;0.90;99.90;;;;;;5112258;28;20267;-82
2021/12/09 02:59:21;;;;;;;30.43;23.77;;;0.90;99.90;;;;;;5112445;28;20239;-82
2021/12/09 03:01:57;;;;;;;27.03;22.27;;;0.90;99.90;;;;;;5112677;28;20200;-82
2021/12/09 03:04:36;;;;;;;34.07;22.50;;;0.90;99.90;;;;;;5114549;28;20200;-82
2021/12/09 03:07:06;;;;;;;34.07;24.03;;;0.80;99.90;;;;;;5116402;28;20204;-82
2021/12/09 03:09:50;;;;;;;30.20;22.17;;;0.80;99.90;;;;;;5116067;28;20215;-82
2021/12/09 03:12:20;;;;;;;26.37;21.23;;;0.80;99.90;;;;;;5116803;28;20283;-82
2021/12/09 03:14:49;;;;;;;30.87;22.33;;;0.80;99.90;;;;;;5116272;28;20214;-82
2021/12/09 03:17:18;;;;;;;32.57;22.53;;;0.80;99.90;;;;;;5116469;28;20224;-82
2021/12/09 03:19:47;;;;;;;29.70;23.47;;;0.80;99.90;;;;;;5115681;28;20199;-82
2021/12/09 03:22:19;;;;;;;31.73;24.33;;;0.80;99.90;;;;;;5116148;28;20264;-81
2021/12/09 03:24:48;;;;;;;33.97;25.07;;;0.80;99.90;;;;;;5116206;28;20237;-81
2021/12/09 03:27:16;;;;;;;34.73;23.70;;;0.80;99.90;;;;;;5116299;28;20227;-81
2021/12/09 03:29:45;;;;;;;29.93;24.83;;;0.80;99.90;;;;;;5115456;28;20288;-81
2021/12/09 03:32:16;;;;;;;34.43;23.67;;;0.80;99.90;;;;;;5115975;28;20218;-81
2021/12/09 03:34:45;;;;;;;30.73;24.87;;;0.80;99.90;;;;;;5116758;28;20283;-81
2021/12/09 03:37:18;;;;;;;27.20;23.70;;;0.80;99.90;;;;;;5115892;28;20306;-80
2021/12/09 03:39:47;;;;;;;29.87;23.27;;;0.80;99.90;;;;;;5115511;28;20282;-80
2021/12/09 03:42:18;;;;;;;36.63;26.93;;;0.80;99.90;;;;;;5115581;28;20299;-80
2021/12/09 03:44:48;;;;;;;30.43;25.07;;;0.70;99.90;;;;;;5115869;28;20210;-80
2021/12/09 03:47:20;;;;;;;39.90;24.73;;;0.70;99.90;;;;;;5115938;28;20306;-80
2021/12/09 03:49:48;;;;;;;27.77;23.57;;;0.80;99.90;;;;;;5115319;28;20208;-80
2021/12/09 03:52:19;;;;;;;27.87;23.70;;;0.70;99.90;;;;;;5115818;28;20267;-80
2021/12/09 03:54:47;;;;;;;30.70;25.17;;;0.70;99.90;;;;;;5115630;28;20203;-80
2021/12/09 03:57:16;;;;;;;35.50;25.33;;;0.70;99.90;;;;;;5115530;28;20219;-80
2021/12/09 03:59:46;;;;;;;31.50;25.53;;;0.70;99.90;;;;;;5114877;28;20244;-83
2021/12/09 04:02:15;;;;;;;29.57;23.70;;;0.70;99.90;;;;;;5115715;28;20290;-82
2021/12/09 04:04:44;;;;;;;36.83;27.77;;;0.60;99.90;;;;;;5115793;28;20200;-82
2021/12/09 04:07:12;;;;;;;36.00;26.23;;;0.60;99.90;;;;;;5115213;28;20259;-83
2021/12/09 04:09:42;;;;;;;29.20;24.13;;;0.70;99.90;;;;;;5115287;28;20214;-83
2021/12/09 04:12:14;;;;;;;33.33;26.70;;;0.70;99.90;;;;;;5115022;28;20234;-83
2021/12/09 04:14:42;;;;;;;36.00;26.23;;;0.70;99.90;;;;;;5114567;28;20196;-83
2021/12/09 04:17:11;;;;;;;32.33;25.63;;;0.70;99.90;;;;;;5115191;28;20230;-82
2021/12/09 04:19:46;;;;;;;36.23;27.80;;;0.70;99.90;;;;;;5115264;28;20271;-82
2021/12/09 04:22:17;;;;;;;30.67;25.20;;;0.70;99.90;;;;;;5115244;28;20211;-82
2021/12/09 04:24:47;;;;;;;33.90;27.17;;;0.60;99.90;;;;;;5114681;28;20246;-82
2021/12/09 04:27:16;;;;;;;34.67;26.47;;;0.60;99.90;;;;;;5114828;28;20227;-82
2021/12/09 04:29:44;;;;;;;36.57;25.00;;;0.60;99.90;;;;;;5114849;28;20199;-82
2021/12/09 04:32:13;;;;;;;35.50;25.63;;;0.60;99.90;;;;;;5114855;28;20227;-82
2021/12/09 04:34:44;;;;;;;35.70;26.77;;;0.60;99.90;;;;;;5114864;28;20207;-82
2021/12/09 04:37:13;;;;;;;32.10;25.60;;;0.60;99.90;;;;;;5115021;28;20286;-82
2021/12/09 04:39:42;;;;;;;51.80;27.60;;;0.60;99.90;;;;;;5114424;28;20227;-82
2021/12/09 04:42:12;;;;;;;32.17;26.80;;;0.60;99.90;;;;;;5114831;28;20226;-82
2021/12/09 04:44:40;;;;;;;33.53;24.00;;;0.60;99.90;;;;;;5114961;28;20207;-82
2021/12/09 04:47:09;;;;;;;30.20;25.27;;;0.60;99.90;;;;;;5114510;28;20223;-81
2021/12/09 04:49:38;;;;;;;38.97;27.33;;;0.60;99.90;;;;;;5114506;28;20211;-82
2021/12/09 04:52:07;;;;;;;38.10;26.60;;;0.60;99.90;;;;;;5114255;28;20212;-81
2021/12/09 04:54:41;;;;;;;29.87;24.70;;;0.60;99.90;;;;;;5114631;28;20204;-81
2021/12/09 04:57:12;;;;;;;31.60;25.23;;;0.60;99.90;;;;;;5114315;28;20287;-82
2021/12/09 04:59:41;;;;;;;38.20;26.47;;;0.60;99.90;;;;;;5113797;28;20208;-81
2021/12/09 05:02:17;;;;;;;36.30;28.27;;;0.60;99.90;;;;;;5114050;28;20200;-81
2021/12/09 05:04:47;;;;;;;32.57;25.80;;;0.60;99.90;;;;;;5114572;28;20207;-81
2021/12/09 05:07:15;;;;;;;33.73;24.90;;;0.60;99.90;;;;;;5114426;28;20303;-81
2021/12/09 05:09:50;;;;;;;30.07;25.03;;;0.60;99.90;;;;;;5113727;28;20263;-81
2021/12/09 05:12:21;;;;;;;32.87;26.50;;;0.60;99.90;;;;;;5114310;28;20239;-80
2021/12/09 05:14:50;;;;;;;35.50;25.57;;;0.60;99.90;;;;;;5113896;28;20208;-81
2021/12/09 05:17:19;;;;;;;33.17;26.90;;;0.60;99.90;;;;;;5114190;28;20220;-80
2021/12/09 05:19:47;;;;;;;32.63;26.03;;;0.70;99.90;;;;;;5113894;28;20200;-80
2021/12/09 05:22:15;;;;;;;39.07;27.00;;;0.70;99.90;;;;;;5114069;28;20208;-80
2021/12/09 05:24:46;;;;;;;33.03;26.60;;;0.70;99.90;;;;;;5113707;28;20212;-81
2021/12/09 05:27:15;;;;;;;36.53;28.93;;;0.70;99.90;;;;;;5113167;28;20283;-81
2021/12/09 05:29:52;;;;;;;34.00;25.63;;;0.70;99.90;;;;;;5113307;28;20288;-81
2021/12/09 05:32:20;;;;;;;27.10;23.83;;;0.70;99.90;;;;;;5113946;28;20219;-81
2021/12/09 05:34:50;;;;;;;32.03;25.27;;;0.70;99.90;;;;;;5113743;28;20294;-80
2021/12/09 05:37:21;;;;;;;27.87;24.07;;;0.70;99.90;;;;;;5113888;28;20251;-81
2021/12/09 05:39:51;;;;;;;28.30;24.23;;;0.70;99.90;;;;;;5113092;28;20199;-80
2021/12/09 05:42:21;;;;;;;33.07;24.70;;;0.70;99.90;;;;;;5113903;28;20200;-80
2021/12/09 05:44:51;;;;;;;28.90;23.77;;;0.70;99.90;;;;;;5114188;28;20306;-80
2021/12/09 05:47:20;;;;;;;28.97;24.53;;;0.70;99.90;;;;;;5113686;28;20219;-80
2021/12/09 05:49:50;;;;;;;31.73;25.67;;;0.70;99.90;;;;;;5113277;28;20199;-80
2021/12/09 05:52:18;;;;;;;33.67;23.83;;;0.70;99.90;;;;;;5113088;28;20284;-81
2021/12/09 05:54:47;;;;;;;42.43;27.67;;;0.70;99.90;;;;;;5112909;28;20211;-81
2021/12/09 05:57:16;;;;;;;30.90;24.97;;;0.70;99.90;;;;;;5113555;28;20258;-83
2021/12/09 05:59:45;;;;;;;45.63;25.83;;;0.70;99.90;;;;;;5112343;28;20217;-82
2021/12/09 06:02:17;;;;;;;41.50;24.13;;;0.80;99.90;;;;;;5113378;28;20271;-82
2021/12/09 06:04:46;;;;;;;29.27;23.27;;;0.70;99.90;;;;;;5113411;28;20204;-82
2021/12/09 06:07:15;;;;;;;30.60;22.70;;;0.70;99.90;;;;;;5113287;28;20314;-82
2021/12/09 06:09:44;;;;;;;36.73;23.13;;;0.70;99.90;;;;;;5112751;28;20215;-82
2021/12/09 06:12:12;;;;;;;35.07;26.40;;;0.70;99.90;;;;;;5112906;28;20219;-82
2021/12/09 06:14:41;;;;;;;28.47;24.37;;;0.70;99.90;;;;;;5113260;28;20267;-82
2021/12/09 06:17:09;;;;;;;30.40;23.07;;;0.80;99.90;;;;;;5113055;28;20217;-82
2021/12/09 06:19:39;;;;;;;26.87;21.87;;;0.70;99.90;;;;;;5112897;28;20203;-82
2021/12/09 06:22:07;;;;;;;27.93;22.13;;;0.70;99.90;;;;;;5112881;28;20234;-83
2021/12/09 06:24:36;;;;;;;29.73;22.37;;;0.70;99.90;;;;;;5112833;28;20204;-83
2021/12/09 06:27:13;;;;;;;29.37;20.50;;;0.70;99.90;;;;;;5113405;28;20258;-83
2021/12/09 06:29:43;;;;;;;24.43;18.90;;;0.70;99.90;;;;;;5112330;28;20204;-83
2021/12/09 06:32:12;;;;;;;30.47;22.90;;;0.70;99.90;;;;;;5112666;28;20226;-83
2021/12/09 06:34:42;;;;;;;31.53;22.30;;;0.70;99.90;;;;;;5112975;28;20286;-83
2021/12/09 06:37:15;;;;;;;30.93;23.57;;;0.60;99.90;;;;;;5112759;28;20212;-83
2021/12/09 06:39:46;;;;;;;25.40;21.60;;;0.60;99.90;;;;;;5116958;28;20203;-83
2021/12/09 06:42:16;;;;;;;31.00;21.67;;;0.70;99.90;;;;;;5117033;28;20204;-83
2021/12/09 06:44:45;;;;;;;35.60;23.43;;;0.70;99.90;;;;;;5117039;28;20254;-83
2021/12/09 06:47:13;;;;;;;24.17;21.60;;;0.70;99.90;;;;;;5116965;28;20300;-83
2021/12/09 06:49:44;;;;;;;25.77;20.80;;;0.70;99.90;;;;;;5116290;28;20203;-83
2021/12/09 06:52:14;;;;;;;25.83;19.80;;;0.70;99.90;;;;;;5116906;28;20238;-83
2021/12/09 06:54:42;;;;;;;24.47;21.47;;;0.80;99.90;;;;;;5117040;28;20216;-83
2021/12/09 06:57:10;;;;;;;23.70;21.13;;;0.70;99.90;;;;;;5116389;28;20299;-83
2021/12/09 06:59:39;;;;;;;36.57;22.80;;;0.80;99.90;;;;;;5116518;28;20199;-82
2021/12/09 07:02:08;;;;;;;27.07;21.73;;;0.70;99.90;;;;;;5117030;28;20291;-82
2021/12/09 07:04:37;;;;;;;28.07;21.80;;;0.70;99.90;;;;;;5117266;28;20210;-83
2021/12/09 07:07:07;;;;;;;24.03;20.33;;;0.70;99.90;;;;;;5116676;28;20208;-83
2021/12/09 07:09:37;;;;;;;24.13;21.57;;;0.70;99.90;;;;;;5116119;28;20204;-83
2021/12/09 07:12:06;;;;;;;26.47;21.27;;;0.70;99.90;;;;;;5116738;28;20306;-82
2021/12/09 07:14:35;;;;;;;27.10;22.17;;;0.70;99.90;;;;;;5116275;28;20230;-82
2021/12/09 07:17:04;;;;;;;26.30;21.47;;;0.70;99.90;;;;;;5116670;28;20226;-82
2021/12/09 07:19:32;;;;;;;24.40;20.57;;;0.70;99.90;;;;;;5115901;28;20204;-82
2021/12/09 07:22:01;;;;;;;23.00;19.93;;;0.70;99.90;;;;;;5116262;28;20211;-82
2021/12/09 07:24:31;;;;;;;25.37;21.60;;;0.80;99.90;;;;;;5116377;28;20234;-82
2021/12/09 07:26:59;;;;;;;24.53;20.43;;;0.70;99.90;;;;;;5116229;28;20295;-82
2021/12/09 07:29:31;;;;;;;31.13;22.80;;;0.70;99.90;;;;;;5115987;28;20207;-82
2021/12/09 07:31:59;;;;;;;23.97;21.17;;;0.70;99.90;;;;;;5116643;28;20262;-82
2021/12/09 07:34:28;;;;;;;25.97;18.73;;;0.70;99.90;;;;;;5115960;28;20199;-83
2021/12/09 07:37:01;;;;;;;31.80;19.57;;;0.70;99.90;;;;;;5116418;28;20292;-82
2021/12/09 07:39:32;;;;;;;22.33;18.07;;;0.80;99.90;;;;;;5115775;28;20283;-82
2021/12/09 07:42:01;;;;;;;28.17;19.63;;;0.80;99.90;;;;;;5116221;28;20204;-82
2021/12/09 07:44:30;;;;;;;22.20;18.97;;;0.80;99.90;;;;;;5116204;28;20267;-82
2021/12/09 07:47:00;;;;;;;23.93;19.27;;;0.80;99.90;;;;;;5115938;28;20286;-83
2021/12/09 07:49:29;;;;;;;21.57;18.60;;;0.80;99.90;;;;;;5114266;28;20258;-83
2021/12/09 07:51:57;;;;;;;25.70;18.27;;;0.80;99.90;;;;;;5115551;28;20254;-83
2021/12/09 07:54:25;;;;;;;23.63;19.40;;;0.80;99.90;;;;;;5115563;28;20299;-83
2021/12/09 07:56:55;;;;;;;21.63;18.30;;;0.80;99.90;;;;;;5115412;28;20227;-83
2021/12/09 07:59:24;;;;;;;31.90;19.30;;;0.80;99.90;;;;;;5115709;28;20204;-83
2021/12/09 08:01:52;;;;;;;23.27;18.70;;;0.90;99.90;;;;;;5117860;28;20290;-87
2021/12/09 08:04:22;;;;;;;34.77;18.67;;;0.80;99.90;;;;;;5100154;28;20204;-87
2021/12/09 08:06:50;;;;;;;23.07;19.30;;;0.80;99.90;;;;;;5117189;28;20223;-87
2021/12/09 08:09:18;;;;;;;20.47;17.77;;;0.80;99.90;;;;;;5115846;28;20203;-87
2021/12/09 08:11:47;;;;;;;18.90;15.93;;;0.80;99.90;;;;;;5116109;28;20204;-87
2021/12/09 08:14:19;;;;;;;21.63;17.67;;;0.80;99.90;;;;;;5115690;28;20291;-87
2021/12/09 08:16:57;;;;;;;19.57;16.50;;;0.80;99.90;;;;;;5116264;28;20220;-87
2021/12/09 08:19:25;;;;;;;16.80;14.90;;;0.80;99.90;;;;;;5114976;28;20295;-87
2021/12/09 08:21:53;;;;;;;20.63;17.47;;;0.80;99.90;;;;;;5115412;28;20235;-88
2021/12/09 08:24:25;;;;;;;20.43;16.83;;;0.80;99.90;;;;;;5115703;28;20212;-87
2021/12/09 08:26:54;;;;;;;19.87;16.10;;;0.80;99.90;;;;;;5115608;28;20295;-87
2021/12/09 08:29:24;;;;;;;17.43;15.60;;;0.80;99.90;;;;;;5115247;28;20221;-87
2021/12/09 08:31:52;;;;;;;18.60;16.03;;;0.80;99.90;;;;;;5115556;28;20226;-88
2021/12/09 08:34:24;;;;;;;17.63;15.73;;;0.80;99.90;;;;;;5115303;28;20311;-88
2021/12/09 08:37:03;;;;;;;15.87;14.30;;;0.80;99.90;;;;;;5115636;28;20207;-88
2021/12/09 08:39:38;;;;;;;19.03;17.07;;;0.80;99.90;;;;;;5115219;28;20234;-87
2021/12/09 08:42:07;;;;;;;21.00;16.30;;;0.90;99.90;;;;;;5115511;28;20199;-88
2021/12/09 08:44:37;;;;;;;18.30;15.37;;;0.80;99.90;;;;;;5115348;28;20278;-87
2021/12/09 08:47:06;;;;;;;18.57;16.03;;;0.90;99.90;;;;;;5115080;28;20208;-87
2021/12/09 08:49:38;;;;;;;18.13;16.13;;;0.90;99.90;;;;;;5115434;28;20283;-87
2021/12/09 08:52:07;;;;;;;19.17;16.67;;;0.90;99.90;;;;;;5114836;28;20223;-87
2021/12/09 08:54:36;;;;;;;17.47;15.00;;;0.90;99.90;;;;;;5114895;28;20257;-87
2021/12/09 08:57:10;;;;;;;17.00;14.60;;;1.00;99.90;;;;;;5115100;28;20199;-88
2021/12/09 08:59:43;;;;;;;20.57;17.30;;;1.00;99.90;;;;;;5114577;28;20212;-88
2021/12/09 09:02:14;;;;;;;19.83;16.80;;;1.00;99.90;;;;;;5113718;28;20291;-88
2021/12/09 09:04:43;;;;;;;17.90;15.70;;;1.00;99.90;;;;;;5115299;28;20204;-88
2021/12/09 09:07:11;;;;;;;18.23;15.60;;;1.10;99.90;;;;;;5114658;28;20204;-88
2021/12/09 09:09:40;;;;;;;17.37;15.47;;;1.00;99.90;;;;;;5114223;28;20230;-89
2021/12/09 09:12:13;;;;;;;19.10;15.80;;;1.10;99.90;;;;;;5114296;28;20306;-89
2021/12/09 09:14:43;;;;;;;16.67;14.70;;;1.00;99.90;;;;;;5114312;28;20227;-89
2021/12/09 09:17:12;;;;;;;21.30;14.77;;;1.10;99.90;;;;;;5114604;28;20207;-89
2021/12/09 09:19:41;;;;;;;16.33;14.53;;;1.10;99.90;;;;;;5113766;28;20231;-89
2021/12/09 09:22:09;;;;;;;17.57;13.43;;;1.10;99.90;;;;;;5114170;28;20250;-86
2021/12/09 09:24:38;;;;;;;16.50;13.63;;;1.10;99.90;;;;;;5114030;28;20192;-87
2021/12/09 09:27:06;;;;;;;14.33;12.37;;;1.00;99.90;;;;;;5113425;28;20286;-87
2021/12/09 09:29:37;;;;;;;14.93;13.33;;;1.10;99.90;;;;;;5113948;28;20282;-87
2021/12/09 09:32:10;;;;;;;13.23;11.83;;;1.10;99.90;;;;;;5114113;28;20207;-86
2021/12/09 09:34:39;;;;;;;13.67;11.47;;;1.10;99.90;;;;;;5113644;28;20227;-86
2021/12/09 09:37:07;;;;;;;17.03;14.23;;;1.10;99.90;;;;;;5114346;28;20208;-86
2021/12/09 09:39:41;;;;;;;13.27;11.53;;;1.10;99.90;;;;;;5113108;28;20215;-86
2021/12/09 09:42:34;;;;;;;12.60;11.40;;;1.10;99.90;;;;;;5113396;28;20286;-86
2021/12/09 09:45:03;;;;;;;13.97;10.73;;;1.00;99.90;;;;;;5113901;28;20212;-86
2021/12/09 09:47:34;;;;;;;10.27;9.27;;;1.00;99.90;;;;;;5113955;28;20279;-88
2021/12/09 09:50:05;;;;;;;11.23;10.10;;;1.00;99.90;;;;;;5113476;28;20206;-86
2021/12/09 09:52:33;;;;;;;13.77;11.70;;;1.10;99.90;;;;;;5113905;28;20282;-86
2021/12/09 09:55:06;;;;;;;11.73;10.37;;;1.10;99.90;;;;;;5113762;28;20299;-86
2021/12/09 09:57:35;;;;;;;14.07;11.07;;;1.00;99.90;;;;;;5113906;28;20317;-86
2021/12/09 10:00:06;;;;;;;12.37;10.73;;;1.10;99.90;;;;;;5112951;28;20256;-86
2021/12/09 10:02:36;;;;;;;12.97;11.30;;;1.00;99.90;;;;;;5113197;27;20263;-88
2021/12/09 10:05:07;;;;;;;11.97;10.73;;;1.00;99.90;;;;;;5113337;28;20204;-86
2021/12/09 10:07:36;;;;;;;14.10;11.70;;;1.00;99.90;;;;;;5116052;28;20279;-85
2021/12/09 10:10:07;;;;;;;12.27;10.97;;;1.00;99.90;;;;;;5121289;28;20223;-85
2021/12/09 10:12:36;;;;;;;11.97;10.77;;;1.00;99.90;;;;;;5115619;28;20204;-85
2021/12/09 10:15:05;;;;;;;12.63;11.33;;;1.00;99.90;;;;;;5112911;28;20222;-85
2021/12/09 10:17:47;;;;;;;13.40;12.00;;;1.10;99.90;;;;;;5113165;28;20223;-85
2021/12/09 10:20:15;;;;;;;14.63;11.70;;;1.10;99.90;;;;;;5113238;28;20282;-84
2021/12/09 10:22:43;;;;;;;13.03;10.67;;;1.10;99.90;;;;;;5113562;28;20263;-85
2021/12/09 10:25:23;;;;;;;14.57;12.17;;;1.10;99.90;;;;;;5113460;28;20207;-85
2021/12/09 10:28:01;;;;;;;13.70;12.10;;;1.10;99.90;;;;;;5112943;28;20251;-85
2021/12/09 10:30:30;;;;;;;10.57;9.57;;;1.10;99.90;;;;;;5112758;28;20241;-85
2021/12/09 10:33:03;;;;;;;16.70;12.93;;;1.00;99.90;;;;;;5113193;28;20231;-85
2021/12/09 10:35:31;;;;;;;12.43;10.50;;;1.00;99.90;;;;;;5112933;28;20315;-85
2021/12/09 10:38:04;;;;;;;12.97;11.57;;;1.00;99.90;;;;;;5113118;28;20247;-85
2021/12/09 10:40:32;;;;;;;16.27;12.63;;;1.00;99.90;;;;;;5112728;28;20212;-85
2021/12/09 10:43:04;;;;;;;13.20;11.83;;;1.00;99.90;;;;;;5112849;28;20203;-85
2021/12/09 10:45:35;;;;;;;11.87;10.43;;;1.00;99.90;;;;;;5113139;28;20263;-85
2021/12/09 10:48:23;;;;;;;12.37;10.50;;;1.00;99.90;;;;;;5113031;28;20223;-85
2021/12/09 10:51:13;;;;;;;12.40;11.10;;;1.00;99.90;;;;;;5112815;28;20204;-85
2021/12/09 10:53:49;;;;;;;13.43;11.93;;;1.00;99.90;;;;;;5112887;28;20265;-86
2021/12/09 10:56:27;;;;;;;12.67;11.37;;;1.00;99.90;;;;;;5112411;28;20207;-85
2021/12/09 10:58:55;;;;;;;11.83;9.47;;;1.00;99.90;;;;;;5112319;28;20323;-84
2021/12/09 11:01:25;;;;;;;10.83;9.70;;;1.00;99.90;;;;;;5113259;28;20226;-85
2021/12/09 11:04:00;;;;;;;16.17;11.60;;;1.00;99.90;;;;;;5113308;28;20283;-84
2021/12/09 11:06:33;;;;;;;12.63;9.83;;;1.00;99.90;;;;;;5112886;28;20214;-84
2021/12/09 11:09:06;;;;;;;12.00;10.27;;;1.00;99.90;;;;;;5112189;28;20243;-84
2021/12/09 11:11:36;;;;;;;16.40;12.17;;;1.10;99.90;;;;;;5112635;28;20294;-84
2021/12/09 11:14:11;;;;;;;15.77;11.37;;;1.10;99.90;;;;;;5113052;28;20310;-87
2021/12/09 11:16:42;;;;;;;14.33;11.90;;;1.10;99.90;;;;;;5113135;28;20215;-87
2021/12/09 11:19:15;;;;;;;10.80;9.70;;;1.00;99.90;;;;;;5112294;28;20323;-84
2021/12/09 11:21:54;;;;;;;11.40;9.97;;;1.10;99.90;;;;;;5112706;28;20220;-84
2021/12/09 11:24:26;;;;;;;14.43;11.07;;;1.10;99.90;;;;;;5112859;28;20278;-84
2021/12/09 11:26:57;;;;;;;11.90;10.50;;;1.10;99.90;;;;;;5116772;28;20208;-84
2021/12/09 11:29:30;;;;;;;16.17;11.27;;;1.10;99.90;;;;;;5116246;28;20283;-86
2021/12/09 11:32:05;;;;;;;15.30;11.30;;;1.10;99.90;;;;;;5116461;28;20200;-84
2021/12/09 11:34:43;;;;;;;10.33;8.90;;;1.10;99.90;;;;;;5116452;28;20310;-84
2021/12/09 11:37:35;;;;;;;10.73;9.63;;;1.10;99.90;;;;;;5116746;28;20291;-84
2021/12/09 11:40:14;;;;;;;14.63;11.10;;;1.10;99.90;;;;;;5116167;28;20279;-84
2021/12/09 11:42:47;;;;;;;16.07;10.67;;;1.10;99.90;;;;;;5116795;28;20257;-84
2021/12/09 11:45:25;;;;;;;13.20;10.23;;;1.10;99.90;;;;;;5116215;28;20224;-84
2021/12/09 11:47:56;;;;;;;10.73;9.37;;;1.10;99.90;;;;;;5115597;28;20230;-84
2021/12/09 11:50:28;;;;;;;10.50;9.07;;;1.10;99.90;;;;;;5115917;28;20282;-84
2021/12/09 11:52:59;;;;;;;10.07;8.60;;;1.10;99.90;;;;;;5116041;28;20287;-84
2021/12/09 11:55:34;;;;;;;12.27;10.20;;;1.10;99.90;;;;;;5116149;28;20272;-84
2021/12/09 11:58:07;;;;;;;17.23;9.60;;;1.10;99.90;;;;;;5115661;28;20306;-84
2021/12/09 12:12:46;;;;;;;10.03;8.70;;;1.20;99.90;;;;;;5074476;28;20264;-83
2021/12/09 12:15:41;;;;;;;9.43;7.80;;;1.20;99.90;;;;;;5113438;28;20227;-84
2021/12/09 12:18:30;;;;;;;9.90;8.50;;;1.20;99.90;;;;;;5101281;28;20247;-84
2021/12/09 12:21:36;;;;;;;8.67;7.77;;;1.20;99.90;;;;;;5095647;28;20236;-84
2021/12/09 12:24:37;;;;;;;11.17;8.50;;;1.20;99.90;;;;;;5095430;28;20283;-83
2021/12/09 12:27:41;;;;;;;9.40;8.40;;;1.20;99.90;;;;;;5095452;28;20210;-83
2021/12/09 12:30:42;;;;;;;8.33;7.53;;;1.20;99.90;;;;;;5095211;28;20231;-83
2021/12/09 12:33:24;;;;;;;8.50;7.70;;;1.10;99.90;;;;;;5095942;28;20281;-83
2021/12/09 12:36:20;;;;;;;9.17;7.97;;;1.10;99.90;;;;;;5095574;28;20291;-83
2021/12/09 12:39:10;;;;;;;8.63;7.80;;;1.10;99.90;;;;;;5094745;28;20310;-83
2021/12/09 12:41:59;;;;;;;10.73;8.30;;;1.10;99.90;;;;;;5095168;28;20200;-83
2021/12/09 12:44:33;;;;;;;8.17;7.17;;;1.10;99.90;;;;;;5095402;28;20267;-85
2021/12/09 12:47:11;;;;;;;7.70;6.93;;;1.20;99.90;;;;;;5095255;28;20212;-86
2021/12/09 12:49:46;;;;;;;8.23;7.43;;;1.20;99.90;;;;;;5094725;28;20227;-83
2021/12/09 12:52:29;;;;;;;7.33;6.63;;;1.20;99.90;;;;;;5094955;28;20295;-86
2021/12/09 12:55:12;;;;;;;8.23;7.43;;;1.20;99.90;;;;;;5094720;28;20244;-83
2021/12/09 12:57:45;;;;;;;10.03;8.17;;;1.20;99.90;;;;;;5094406;28;20231;-86
2021/12/09 13:00:17;;;;;;;8.97;8.07;;;1.20;99.90;;;;;;5094899;28;20201;-84
2021/12/09 13:03:05;;;;;;;8.67;7.70;;;1.20;99.90;;;;;;5094451;28;20239;-86
2021/12/09 13:05:55;;;;;;;8.97;8.17;;;1.20;99.90;;;;;;5094705;28;20201;-84
2021/12/09 13:08:51;;;;;;;9.40;8.40;;;1.20;99.90;;;;;;5093940;28;20244;-84
2021/12/09 13:11:41;;;;;;;9.07;8.20;;;1.20;99.90;;;;;;5094130;28;20212;-84
2021/12/09 13:14:18;;;;;;;10.67;9.57;;;1.20;99.90;;;;;;5093871;28;20200;-84
2021/12/09 13:17:00;;;;;;;10.20;9.20;;;1.20;99.90;;;;;;5093823;28;20213;-84